createdAt,value
2022-09-16T00:00:45.380Z,98913.47
2022-09-16T00:03:47.770Z,98906.34
2022-09-16T00:06:50.009Z,98906.16
2022-09-16T00:09:52.145Z,98902.69
2022-09-16T00:12:54.188Z,98907.09
2022-09-16T00:15:56.464Z,98913.28
2022-09-16T00:19:00.772Z,98916.00
2022-09-16T00:22:03.103Z,98913.03
2022-09-16T00:25:05.761Z,98918.19
2022-09-16T00:28:07.864Z,98904.81
2022-09-16T00:31:10.254Z,98914.66
2022-09-16T00:34:12.347Z,98923.19
2022-09-16T00:37:14.414Z,98918.63
2022-09-16T00:40:16.625Z,98914.50
2022-09-16T00:43:19.337Z,98917.72
2022-09-16T00:46:34.699Z,98923.75
2022-09-16T00:49:36.831Z,98922.59
2022-09-16T00:52:39.736Z,98924.72
2022-09-16T00:55:41.792Z,98936.84
2022-09-16T00:58:51.257Z,98932.56
2022-09-16T01:01:54.623Z,98933.53
2022-09-16T01:05:17.731Z,98925.00
2022-09-16T01:08:19.789Z,98923.63
2022-09-16T01:11:21.876Z,98927.63
2022-09-16T01:14:42.918Z,98923.06
2022-09-16T01:17:54.288Z,98925.91
2022-09-16T01:21:15.450Z,98920.25
2022-09-16T01:24:41.215Z,98918.69
2022-09-16T01:28:19.929Z,98927.59
2022-09-16T01:31:50.301Z,98920.72
2022-09-16T01:35:11.773Z,98926.66
2022-09-16T01:38:30.432Z,98925.63
2022-09-16T01:42:08.804Z,98915.56
2022-09-16T01:45:26.891Z,98935.59
2022-09-16T01:48:44.513Z,98938.59
2022-09-16T01:52:21.397Z,98928.22
2022-09-16T01:56:00.853Z,98927.13
2022-09-16T01:59:18.236Z,98924.44
2022-09-16T02:02:23.475Z,98920.25
2022-09-16T02:05:49.530Z,98929.72
2022-09-16T02:08:57.926Z,98935.16
2022-09-16T02:12:05.509Z,98930.22
2022-09-16T02:15:09.683Z,98931.97
2022-09-16T02:18:13.608Z,98930.31
2022-09-16T02:21:16.211Z,98934.69
2022-09-16T02:24:19.847Z,98941.13
2022-09-16T02:27:22.267Z,98934.09
2022-09-16T02:30:24.348Z,98943.78
2022-09-16T02:33:49.242Z,98941.97
2022-09-16T02:36:56.427Z,98939.72
2022-09-16T02:40:02.395Z,98940.53
2022-09-16T02:43:05.384Z,98932.25
2022-09-16T02:46:29.421Z,98933.06
2022-09-16T02:49:44.147Z,98920.19
2022-09-16T02:53:21.616Z,98934.03
2022-09-16T02:56:29.830Z,98938.56
2022-09-16T02:59:31.938Z,98935.72
2022-09-16T03:02:34.873Z,98940.06
2022-09-16T03:06:08.924Z,98932.44
2022-09-16T03:09:15.179Z,98941.91
2022-09-16T03:12:34.604Z,98938.91
2022-09-16T03:16:10.263Z,98945.41
2022-09-16T03:20:12.088Z,98939.88
2022-09-16T03:23:49.572Z,98938.41
2022-09-16T03:27:19.144Z,98944.75
2022-09-16T03:30:21.234Z,98943.00
2022-09-16T03:33:38.006Z,98947.72
2022-09-16T03:36:44.415Z,98948.94
2022-09-16T03:39:56.126Z,98964.19
2022-09-16T03:42:58.349Z,98948.56
2022-09-16T03:46:00.577Z,98934.13
2022-09-16T03:49:03.070Z,98944.31
2022-09-16T03:52:05.701Z,98956.69
2022-09-16T03:55:08.791Z,98953.03
2022-09-16T03:58:10.907Z,98944.72
2022-09-16T04:01:14.356Z,98923.44
2022-09-16T04:04:16.435Z,98945.94
2022-09-16T04:07:18.517Z,98945.94
2022-09-16T04:10:20.661Z,98945.75
2022-09-16T04:13:22.804Z,98938.47
2022-09-16T04:16:25.419Z,98946.59
2022-09-16T04:19:27.530Z,98954.31
2022-09-16T04:22:30.764Z,98953.09
2022-09-16T04:25:33.839Z,98948.22
2022-09-16T04:28:35.919Z,98938.13
2022-09-16T04:31:38.090Z,98955.34
2022-09-16T04:34:40.226Z,98959.81
2022-09-16T04:37:42.327Z,98961.84
2022-09-16T04:40:44.394Z,98957.00
2022-09-16T04:43:47.137Z,98947.84
2022-09-16T04:46:49.230Z,98956.97
2022-09-16T04:49:51.385Z,98955.91
2022-09-16T04:52:53.530Z,98957.75
2022-09-16T04:56:05.220Z,98963.59
2022-09-16T04:59:07.319Z,98960.31
2022-09-16T05:02:09.478Z,98960.56
2022-09-16T05:05:12.174Z,98954.09
2022-09-16T05:08:14.365Z,98957.16
2022-09-16T05:11:24.720Z,98963.22
2022-09-16T05:14:27.503Z,98955.34
2022-09-16T05:17:51.298Z,98972.97
2022-09-16T05:21:01.171Z,98974.41
2022-09-16T05:24:05.225Z,98975.22
2022-09-16T05:27:07.274Z,98986.75
2022-09-16T05:30:10.477Z,98975.44
2022-09-16T05:33:12.620Z,98972.00
2022-09-16T05:36:17.063Z,98981.28
2022-09-16T05:39:24.006Z,98974.63
2022-09-16T05:42:26.980Z,98981.72
2022-09-16T05:45:32.349Z,98984.31
2022-09-16T05:48:35.309Z,98984.53
2022-09-16T05:51:38.571Z,98994.66
2022-09-16T05:54:40.643Z,98996.28
2022-09-16T05:57:42.684Z,99004.41
2022-09-16T06:00:45.148Z,99005.59
2022-09-16T06:03:48.367Z,99010.69
2022-09-16T06:06:50.527Z,99005.19
2022-09-16T06:09:53.096Z,99004.78
2022-09-16T06:16:15.008Z,98999.72
2022-09-16T06:19:18.102Z,99009.66
2022-09-16T06:22:20.154Z,99007.84
2022-09-16T06:25:22.272Z,99008.66
2022-09-16T06:28:24.348Z,99017.75
2022-09-16T06:31:27.579Z,99015.75
2022-09-16T06:34:29.931Z,99012.50
2022-09-16T06:37:32.074Z,99021.00
2022-09-16T06:40:34.232Z,99014.88
2022-09-16T06:43:36.524Z,99030.91
2022-09-16T06:46:38.841Z,99026.06
2022-09-16T06:49:40.908Z,99042.66
2022-09-16T06:52:43.047Z,99042.66
2022-09-16T06:55:45.128Z,99041.22
2022-09-16T06:58:49.920Z,99040.00
2022-09-16T07:01:52.959Z,99047.63
2022-09-16T07:04:55.169Z,99045.38
2022-09-16T07:07:58.458Z,99052.66
2022-09-16T07:11:05.469Z,99062.16
2022-09-16T07:14:09.428Z,99057.66
2022-09-16T07:17:11.544Z,99057.69
2022-09-16T07:20:13.631Z,99069.50
2022-09-16T07:23:15.719Z,99061.16
2022-09-16T07:26:23.179Z,99058.59
2022-09-16T07:29:25.352Z,99062.63
2022-09-16T07:32:27.420Z,99079.84
2022-09-16T07:35:29.556Z,99076.66
2022-09-16T07:38:31.820Z,99085.91
2022-09-16T07:41:36.647Z,99085.31
2022-09-16T07:44:38.704Z,99094.03
2022-09-16T07:47:40.787Z,99086.69
2022-09-16T07:50:42.869Z,99088.97
2022-09-16T07:53:45.355Z,99100.03
2022-09-16T07:56:47.540Z,99101.03
2022-09-16T07:59:50.155Z,99095.13
2022-09-16T08:02:57.805Z,99098.84
2022-09-16T08:06:22.342Z,99106.31
2022-09-16T08:09:37.620Z,99106.44
2022-09-16T08:12:40.915Z,99107.50
2022-09-16T08:15:42.952Z,99117.94
2022-09-16T08:18:46.600Z,99121.00
2022-09-16T08:21:48.717Z,99114.69
2022-09-16T08:24:50.758Z,99125.06
2022-09-16T08:27:55.607Z,99122.19
2022-09-16T08:37:41.440Z,99137.78
2022-09-16T08:40:44.920Z,99135.69
2022-09-16T08:44:01.697Z,99146.31
2022-09-16T08:47:38.460Z,99136.59
2022-09-16T08:50:42.360Z,99154.56
2022-09-16T08:54:06.673Z,99149.31
2022-09-16T08:57:17.542Z,99131.03
2022-09-16T09:00:20.260Z,99161.03
2022-09-16T09:03:37.961Z,99155.25
2022-09-16T09:07:01.412Z,99151.38
2022-09-16T09:10:18.515Z,99161.09
2022-09-16T09:13:38.531Z,99168.97
2022-09-16T09:17:04.838Z,99168.97
2022-09-16T09:20:12.658Z,99178.84
2022-09-16T09:23:40.476Z,99183.69
2022-09-16T09:27:17.155Z,99189.72
2022-09-16T09:30:28.529Z,99200.94
2022-09-16T09:33:47.088Z,99198.09
2022-09-16T09:37:04.990Z,99200.31
2022-09-16T09:40:19.544Z,99211.16
2022-09-16T09:43:53.407Z,99222.44
2022-09-16T09:46:59.285Z,99213.03
2022-09-16T09:50:36.576Z,99235.06
2022-09-16T09:53:47.096Z,99208.44
2022-09-16T09:56:49.315Z,99221.13
2022-09-16T10:00:00.889Z,99210.31
2022-09-16T10:03:11.791Z,99226.22
2022-09-16T10:06:13.946Z,99221.25
2022-09-16T10:09:16.355Z,99219.59
2022-09-16T10:12:31.844Z,99224.09
2022-09-16T10:15:35.109Z,99227.69
2022-09-16T10:18:37.210Z,99224.53
2022-09-16T10:22:19.319Z,99231.75
2022-09-16T10:25:25.174Z,99232.78
2022-09-16T10:28:28.374Z,99230.44
2022-09-16T10:31:36.727Z,99235.59
2022-09-16T10:34:40.185Z,99226.59
2022-09-16T10:37:48.151Z,99237.72
2022-09-16T10:41:14.358Z,99243.63
2022-09-16T10:44:25.212Z,99232.72
2022-09-16T10:47:32.387Z,99233.78
2022-09-16T10:50:34.498Z,99245.13
2022-09-16T10:53:43.669Z,99248.75
2022-09-16T10:56:51.148Z,99237.66
2022-09-16T11:00:07.372Z,99244.56
2022-09-16T11:03:37.006Z,99246.81
2022-09-16T11:07:09.038Z,99243.13
2022-09-16T11:10:38.731Z,99257.22
2022-09-16T11:13:52.796Z,99249.44
2022-09-16T11:17:57.848Z,99255.03
2022-09-16T11:21:38.799Z,99252.38
2022-09-16T11:25:14.131Z,99260.09
2022-09-16T11:28:55.472Z,99262.88
2022-09-16T11:32:35.968Z,99250.19
2022-09-16T11:36:36.860Z,99259.56
2022-09-16T11:39:57.461Z,99274.38
2022-09-16T11:43:34.824Z,99267.44
2022-09-16T11:47:16.760Z,99271.63
2022-09-16T11:50:45.722Z,99274.13
2022-09-16T11:54:02.706Z,99282.66
2022-09-16T11:57:13.255Z,99272.28
2022-09-16T12:00:18.478Z,99266.31
2022-09-16T12:03:48.605Z,99278.38
2022-09-16T12:07:10.150Z,99289.44
2022-09-16T12:10:30.301Z,99280.53
2022-09-16T12:13:37.319Z,99295.34
2022-09-16T12:17:06.542Z,99280.56
2022-09-16T12:20:19.395Z,99278.44
2022-09-16T12:23:25.464Z,99288.50
2022-09-16T12:26:33.399Z,99277.91
2022-09-16T12:29:59.479Z,99287.91
2022-09-16T12:33:38.993Z,99302.41
2022-09-16T12:36:44.802Z,99298.63
2022-09-16T12:39:49.857Z,99270.84
2022-09-16T12:43:11.011Z,99285.38
2022-09-16T12:46:59.823Z,99293.22
2022-09-16T12:50:54.576Z,99284.28
2022-09-16T12:54:00.836Z,99292.38
2022-09-16T12:57:47.108Z,99285.25
2022-09-16T13:01:24.724Z,99290.50
2022-09-16T13:04:39.780Z,99306.56
2022-09-16T13:07:41.867Z,99291.69
2022-09-16T13:10:57.772Z,99298.75
2022-09-16T13:14:14.248Z,99297.72
2022-09-16T13:17:29.349Z,99295.63
2022-09-16T13:20:39.395Z,99311.22
2022-09-16T13:23:45.022Z,99306.88
2022-09-16T13:26:47.413Z,99294.88
2022-09-16T13:29:49.514Z,99300.50
2022-09-16T13:32:51.445Z,99300.34
2022-09-16T13:36:16.762Z,99300.03
2022-09-16T13:39:31.413Z,99291.28
2022-09-16T13:42:33.506Z,99300.19
2022-09-16T13:45:41.072Z,99295.28
2022-09-16T13:49:02.871Z,99304.09
2022-09-16T13:52:28.096Z,99314.94
2022-09-16T13:55:30.136Z,99299.31
2022-09-16T13:58:59.287Z,99297.97
2022-09-16T14:02:13.031Z,99302.09
2022-09-16T14:05:46.229Z,99304.69
2022-09-16T14:09:26.283Z,99311.69
2022-09-16T14:13:11.039Z,99314.72
2022-09-16T14:16:23.064Z,99301.13
2022-09-16T14:19:32.514Z,99306.50
2022-09-16T14:22:34.606Z,99307.69
2022-09-16T14:25:37.016Z,99301.47
2022-09-16T14:28:39.583Z,99312.34
2022-09-16T14:31:45.323Z,99292.00
2022-09-16T14:34:47.698Z,99317.34
2022-09-16T14:37:56.582Z,99319.69
2022-09-16T14:40:58.808Z,99323.56
2022-09-16T14:44:19.051Z,99315.75
2022-09-16T14:47:47.395Z,99322.19
2022-09-16T14:50:52.596Z,99317.94
2022-09-16T14:54:12.166Z,99321.06
2022-09-16T14:57:23.046Z,99317.38
2022-09-16T15:00:46.938Z,99314.72
2022-09-16T15:04:03.926Z,99302.84
2022-09-16T15:07:12.544Z,99306.84
2022-09-16T15:10:30.295Z,99298.25
2022-09-16T15:13:42.215Z,99316.31
2022-09-16T15:16:51.190Z,99307.34
2022-09-16T15:19:58.718Z,99298.81
2022-09-16T15:23:02.830Z,99300.94
2022-09-16T15:26:16.261Z,99306.66
2022-09-16T15:29:18.331Z,99314.72
2022-09-16T15:32:24.126Z,99327.09
2022-09-16T15:35:27.400Z,99343.47
2022-09-16T15:38:30.069Z,99342.16
2022-09-16T15:41:32.310Z,99356.50
2022-09-16T15:44:37.414Z,99342.06
2022-09-16T15:47:54.731Z,99343.50
2022-09-16T15:51:02.523Z,99344.84
2022-09-16T15:54:14.449Z,99347.31
2022-09-16T15:57:31.879Z,99350.41
2022-09-16T16:00:57.640Z,99341.53
2022-09-16T16:04:01.125Z,99345.00
2022-09-16T16:07:05.265Z,99344.00
2022-09-16T16:10:23.826Z,99335.63
2022-09-16T16:13:25.897Z,99339.38
2022-09-16T16:16:28.209Z,99346.16
2022-09-16T16:19:30.550Z,99332.69
2022-09-16T16:22:32.918Z,99333.66
2022-09-16T16:25:35.143Z,99337.34
2022-09-16T16:28:38.617Z,99332.25
2022-09-16T16:31:40.898Z,99342.06
2022-09-16T16:34:50.330Z,99336.13
2022-09-16T16:37:52.425Z,99330.44
2022-09-16T16:40:54.558Z,99329.84
2022-09-16T16:43:56.620Z,99328.94
2022-09-16T16:46:58.775Z,99344.56
2022-09-16T16:50:01.730Z,99344.72
2022-09-16T16:53:03.849Z,99353.94
2022-09-16T16:56:15.194Z,99347.63
2022-09-16T16:59:17.984Z,99343.19
2022-09-16T17:02:20.204Z,99358.19
2022-09-16T17:05:22.325Z,99342.28
2022-09-16T17:08:24.432Z,99349.28
2022-09-16T17:11:26.771Z,99359.78
2022-09-16T17:14:30.230Z,99367.41
2022-09-16T17:17:32.305Z,99362.72
2022-09-16T17:20:34.375Z,99374.56
2022-09-16T17:23:36.567Z,99374.41
2022-09-16T17:26:39.742Z,99377.34
2022-09-16T17:29:41.808Z,99379.72
2022-09-16T17:32:43.875Z,99381.81
2022-09-16T17:35:45.920Z,99387.78
2022-09-16T17:38:49.218Z,99380.28
2022-09-16T17:41:51.516Z,99388.31
2022-09-16T17:44:53.665Z,99377.78
2022-09-16T17:47:57.669Z,99378.69
2022-09-16T17:50:59.900Z,99382.59
2022-09-16T17:54:03.391Z,99384.31
2022-09-16T17:57:05.478Z,99389.34
2022-09-16T18:00:08.505Z,99388.06
2022-09-16T18:03:16.510Z,99394.66
2022-09-16T18:06:31.041Z,99394.59
2022-09-16T18:09:33.146Z,99405.22
2022-09-16T18:12:35.204Z,99407.16
2022-09-16T18:15:37.330Z,99406.66
2022-09-16T18:18:40.780Z,99408.00
2022-09-16T18:21:42.847Z,99403.19
2022-09-16T18:24:44.958Z,99406.72
2022-09-16T18:27:47.209Z,99420.03
2022-09-16T18:31:00.974Z,99419.38
2022-09-16T18:34:03.218Z,99429.69
2022-09-16T18:37:05.340Z,99413.69
2022-09-16T18:40:08.634Z,99410.38
2022-09-16T18:43:10.779Z,99419.63
2022-09-16T18:46:26.164Z,99433.53
2022-09-16T18:49:30.171Z,99435.81
2022-09-16T18:52:32.271Z,99434.50
2022-09-16T18:55:34.306Z,99427.75
2022-09-16T18:58:36.343Z,99428.81
2022-09-16T19:01:39.177Z,99432.19
2022-09-16T19:04:42.829Z,99443.09
2022-09-16T19:07:44.879Z,99446.00
2022-09-16T19:10:47.784Z,99448.41
2022-09-16T19:13:50.350Z,99435.81
2022-09-16T19:16:53.193Z,99434.38
2022-09-16T19:19:55.329Z,99421.06
2022-09-16T19:22:57.396Z,99420.94
2022-09-16T19:26:03.771Z,99434.53
2022-09-16T19:29:06.967Z,99449.22
2022-09-16T19:32:09.029Z,99460.22
2022-09-16T19:35:11.206Z,99454.59
2022-09-16T19:38:13.242Z,99431.75
2022-09-16T19:41:15.839Z,99439.66
2022-09-16T19:44:18.117Z,99445.56
2022-09-16T19:47:20.208Z,99452.44
2022-09-16T19:50:22.376Z,99458.16
2022-09-16T19:53:24.443Z,99466.50
2022-09-16T19:56:28.559Z,99462.31
2022-09-16T19:59:30.639Z,99455.09
2022-09-16T20:02:33.030Z,99464.47
2022-09-16T20:05:35.360Z,99480.72
2022-09-16T20:08:39.507Z,99477.25
2022-09-16T20:11:44.738Z,99475.44
2022-09-16T20:14:46.824Z,99475.25
2022-09-16T20:17:48.887Z,99474.22
2022-09-16T20:20:50.934Z,99478.47
2022-09-16T20:23:53.672Z,99481.53
2022-09-16T20:26:57.380Z,99467.72
2022-09-16T20:29:59.481Z,99481.91
2022-09-16T20:33:01.555Z,99492.09
2022-09-16T20:36:11.774Z,99493.75
2022-09-16T20:39:14.476Z,99501.84
2022-09-16T20:42:16.835Z,99495.97
2022-09-16T20:45:18.947Z,99488.84
2022-09-16T20:48:21.048Z,99493.75
2022-09-16T20:51:25.651Z,99495.78
2022-09-16T20:54:27.743Z,99496.19
2022-09-16T20:57:29.871Z,99506.94
2022-09-16T21:00:32.956Z,99511.41
2022-09-16T21:03:35.142Z,99515.88
2022-09-16T21:06:37.413Z,99504.09
2022-09-16T21:09:39.787Z,99504.47
2022-09-16T21:12:41.895Z,99508.97
2022-09-16T21:15:44.027Z,99509.78
2022-09-16T21:18:46.177Z,99521.56
2022-09-16T21:21:48.540Z,99520.16
2022-09-16T21:24:50.726Z,99519.72
2022-09-16T21:27:52.835Z,99513.88
2022-09-16T21:31:02.478Z,99510.00
2022-09-16T21:34:06.369Z,99508.19
2022-09-16T21:37:08.484Z,99515.06
2022-09-16T21:40:12.410Z,99529.88
2022-09-16T21:43:14.524Z,99523.09
2022-09-16T21:46:22.112Z,99519.97
2022-09-16T21:49:25.712Z,99520.53
2022-09-16T21:52:27.896Z,99522.59
2022-09-16T21:55:30.611Z,99524.00
2022-09-16T21:58:33.057Z,99526.03
2022-09-16T22:01:35.585Z,99516.97
2022-09-16T22:04:37.729Z,99510.50
2022-09-16T22:07:39.795Z,99524.03
2022-09-16T22:10:41.867Z,99525.03
2022-09-16T22:13:43.917Z,99522.16
2022-09-16T22:16:46.104Z,99525.25
2022-09-16T22:19:48.207Z,99522.59
2022-09-16T22:22:50.380Z,99519.19
2022-09-16T22:25:52.486Z,99521.75
2022-09-16T22:28:54.583Z,99512.72
2022-09-16T22:31:56.629Z,99506.88
2022-09-16T22:34:58.694Z,99517.03
2022-09-16T22:38:00.878Z,99508.13
2022-09-16T22:41:07.320Z,99513.38
2022-09-16T22:44:09.515Z,99512.53
2022-09-16T22:47:11.616Z,99510.16
2022-09-16T22:50:13.796Z,99516.03
2022-09-16T22:53:15.840Z,99515.78
2022-09-16T22:56:20.791Z,99520.72
2022-09-16T22:59:23.371Z,99523.81
2022-09-16T23:02:25.497Z,99522.69
2022-09-16T23:05:27.978Z,99517.94
2022-09-16T23:08:30.771Z,99518.13
2022-09-16T23:11:34.431Z,99516.63
2022-09-16T23:14:37.038Z,99505.66
2022-09-16T23:17:41.358Z,99507.38
2022-09-16T23:20:43.445Z,99504.91
2022-09-16T23:23:53.719Z,99509.97
2022-09-16T23:26:55.923Z,99508.19
2022-09-16T23:29:58.145Z,99507.50
2022-09-16T23:33:00.170Z,99497.09
2022-09-16T23:36:02.855Z,99502.22
2022-09-16T23:39:06.503Z,99498.16
2022-09-16T23:42:08.774Z,99495.44
2022-09-16T23:45:11.090Z,99496.63
2022-09-16T23:48:13.383Z,99506.63
2022-09-16T23:51:15.423Z,99496.63
2022-09-16T23:54:17.576Z,99492.91
2022-09-16T23:57:19.642Z,99493.59
